createdAt,value
2019-03-04T00:02:18.735Z,1.50
2019-03-04T00:05:43.797Z,2.00
2019-03-04T00:12:40.258Z,1.90
2019-03-04T00:15:29.119Z,2.13
2019-03-04T00:22:03.104Z,1.87
2019-03-04T00:24:54.014Z,1.60
2019-03-04T00:28:01.010Z,1.70
2019-03-04T00:34:36.289Z,1.93
2019-03-04T00:37:25.137Z,1.70
2019-03-04T00:47:47.139Z,1.70
2019-03-04T01:03:20.626Z,1.87
2019-03-04T01:18:46.831Z,2.40
2019-03-04T01:27:12.296Z,1.70
2019-03-04T01:30:02.048Z,1.67
2019-03-04T01:36:31.715Z,1.60
2019-03-04T01:39:01.247Z,1.93
2019-03-04T01:41:30.789Z,1.90
2019-03-04T01:44:00.350Z,1.33
2019-03-04T01:46:29.892Z,1.53
2019-03-04T01:48:59.442Z,1.57
2019-03-04T01:51:29.010Z,1.70
2019-03-04T01:53:58.579Z,1.47
2019-03-04T01:56:28.130Z,1.23
2019-03-04T01:58:57.667Z,1.60
2019-03-04T02:01:27.375Z,1.87
2019-03-04T02:03:56.929Z,1.23
2019-03-04T02:06:26.490Z,1.40
2019-03-04T02:08:58.431Z,1.60
2019-03-04T02:11:27.999Z,1.57
2019-03-04T02:13:57.536Z,1.50
2019-03-04T02:16:27.067Z,1.10
2019-03-04T02:18:56.607Z,0.90
2019-03-04T02:21:26.575Z,1.40
2019-03-04T02:23:57.617Z,0.90
2019-03-04T02:26:27.283Z,0.80
2019-03-04T02:28:56.828Z,1.27
2019-03-04T02:31:26.360Z,1.13
2019-03-04T02:33:57.825Z,1.07
2019-03-04T02:36:27.406Z,0.90
2019-03-04T02:38:56.950Z,0.90
2019-03-04T02:41:26.514Z,0.87
2019-03-04T02:43:56.091Z,0.90
2019-03-04T02:46:25.672Z,1.10
2019-03-04T02:48:55.213Z,0.90
2019-03-04T02:51:24.792Z,0.70
2019-03-04T02:53:54.603Z,0.80
2019-03-04T02:56:24.156Z,0.67
2019-03-04T02:58:53.674Z,0.60
2019-03-04T03:01:23.243Z,0.80
2019-03-04T03:03:53.124Z,0.70
2019-03-04T03:06:24.321Z,0.70
2019-03-04T03:08:53.844Z,1.00
2019-03-04T03:11:25.494Z,1.17
2019-03-04T03:13:55.031Z,1.03
2019-03-04T03:16:24.596Z,0.73
2019-03-04T03:18:54.155Z,1.07
2019-03-04T03:21:23.681Z,0.40
2019-03-04T03:23:53.243Z,0.60
2019-03-04T03:26:22.784Z,0.77
2019-03-04T03:28:52.363Z,0.73
2019-03-04T03:31:21.930Z,0.60
2019-03-04T03:33:54.599Z,0.60
2019-03-04T03:36:28.087Z,1.00
2019-03-04T03:38:57.657Z,0.53
2019-03-04T03:41:27.176Z,1.00
2019-03-04T03:43:56.736Z,0.93
2019-03-04T03:46:26.297Z,0.90
2019-03-04T03:48:55.834Z,1.10
2019-03-04T03:51:25.403Z,0.97
2019-03-04T03:53:55.094Z,0.93
2019-03-04T03:56:24.589Z,1.13
2019-03-04T03:58:54.150Z,1.10
2019-03-04T04:01:23.745Z,1.23
2019-03-04T04:03:53.293Z,1.17
2019-03-04T04:06:23.854Z,1.10
2019-03-04T04:08:53.375Z,1.17
2019-03-04T04:11:23.211Z,1.00
2019-03-04T04:13:52.735Z,1.30
2019-03-04T04:16:24.191Z,1.10
2019-03-04T04:18:53.732Z,1.47
2019-03-04T04:21:23.279Z,1.00
2019-03-04T04:23:52.838Z,1.20
2019-03-04T04:26:22.458Z,1.50
2019-03-04T04:28:54.155Z,1.23
2019-03-04T04:31:23.750Z,1.00
2019-03-04T04:33:53.292Z,1.07
2019-03-04T04:36:22.862Z,1.27
2019-03-04T04:38:52.786Z,1.30
2019-03-04T04:41:23.202Z,1.20
2019-03-04T04:43:52.756Z,1.27
2019-03-04T04:46:51.795Z,0.93
2019-03-04T04:49:21.372Z,1.23
2019-03-04T04:51:50.911Z,1.07
2019-03-04T04:54:20.471Z,1.07
2019-03-04T04:56:50.031Z,1.10
2019-03-04T04:59:19.582Z,1.00
2019-03-04T05:01:49.143Z,1.10
2019-03-04T05:04:24.276Z,1.00
2019-03-04T05:06:51.375Z,1.17
2019-03-04T05:09:20.966Z,0.90
2019-03-04T05:11:50.527Z,0.73
2019-03-04T05:14:20.067Z,1.30
2019-03-04T05:16:49.623Z,0.97
2019-03-04T05:19:19.574Z,1.37
2019-03-04T05:21:50.391Z,0.80
2019-03-04T05:24:19.913Z,0.80
2019-03-04T05:26:49.486Z,0.90
2019-03-04T05:29:19.029Z,0.73
2019-03-04T05:31:48.569Z,0.60
2019-03-04T05:34:22.555Z,1.00
2019-03-04T05:36:52.430Z,1.30
2019-03-04T05:39:23.324Z,1.00
2019-03-04T05:41:52.857Z,0.70
2019-03-04T05:44:22.612Z,0.90
2019-03-04T05:46:52.182Z,0.80
2019-03-04T05:49:21.737Z,1.00
2019-03-04T05:51:51.272Z,1.03
2019-03-04T05:54:20.833Z,0.90
2019-03-04T05:56:50.367Z,1.07
2019-03-04T05:59:20.329Z,1.13
2019-03-04T06:01:54.841Z,0.60
2019-03-04T06:04:24.836Z,1.13
2019-03-04T06:06:59.385Z,0.90
2019-03-04T06:09:29.462Z,1.27
2019-03-04T06:11:59.639Z,1.00
2019-03-04T06:14:29.161Z,0.80
2019-03-04T06:16:58.728Z,1.00
2019-03-04T06:19:29.177Z,0.80
2019-03-04T06:21:58.724Z,0.93
2019-03-04T06:24:28.366Z,0.83
2019-03-04T06:26:57.940Z,0.90
2019-03-04T06:29:27.489Z,1.10
2019-03-04T06:31:59.016Z,1.00
2019-03-04T06:34:28.301Z,1.23
2019-03-04T06:36:58.090Z,0.90
2019-03-04T06:39:27.691Z,0.80
2019-03-04T06:41:59.428Z,0.50
2019-03-04T06:44:28.632Z,0.50
2019-03-04T06:46:58.196Z,0.47
2019-03-04T06:49:27.987Z,0.37
2019-03-04T06:51:57.661Z,0.30
2019-03-04T06:54:46.621Z,0.50
2019-03-04T06:57:16.760Z,0.50
2019-03-04T07:00:03.665Z,0.60
2019-03-04T07:02:43.336Z,0.23
2019-03-04T07:05:32.371Z,0.40
2019-03-04T07:08:01.915Z,0.40
2019-03-04T07:10:34.528Z,0.50
2019-03-04T07:13:04.095Z,0.40
2019-03-04T07:15:33.630Z,0.70
2019-03-04T07:18:03.853Z,0.50
2019-03-04T07:20:33.656Z,0.67
2019-03-04T07:23:03.752Z,0.50
2019-03-04T07:25:33.665Z,0.67
2019-03-04T07:28:03.789Z,1.10
2019-03-04T07:30:33.312Z,0.30
2019-03-04T07:33:02.852Z,0.60
2019-03-04T07:35:32.423Z,0.70
2019-03-04T07:38:24.834Z,0.70
2019-03-04T07:40:55.034Z,0.80
2019-03-04T07:43:24.619Z,0.80
2019-03-04T07:45:55.271Z,0.60
2019-03-04T07:48:24.838Z,0.80
2019-03-04T07:50:54.378Z,0.50
2019-03-04T07:53:25.477Z,0.73
2019-03-04T07:55:55.344Z,1.20
2019-03-04T07:58:25.889Z,1.07
2019-03-04T08:00:56.205Z,0.90
2019-03-04T08:03:25.717Z,0.90
2019-03-04T08:05:57.725Z,0.90
2019-03-04T08:08:27.526Z,0.70
2019-03-04T08:11:13.565Z,0.63
2019-03-04T08:13:50.897Z,0.87
2019-03-04T08:16:20.473Z,0.80
2019-03-04T08:18:50.005Z,0.70
2019-03-04T08:21:21.044Z,0.70
2019-03-04T08:23:50.916Z,1.00
2019-03-04T08:26:21.033Z,0.80
2019-03-04T08:28:50.766Z,0.90
2019-03-04T08:31:21.036Z,1.00
2019-03-04T08:33:51.115Z,0.77
2019-03-04T08:36:20.646Z,0.80
2019-03-04T08:38:50.190Z,0.90
2019-03-04T08:41:19.768Z,0.80
2019-03-04T08:43:49.369Z,0.70
2019-03-04T08:46:18.899Z,1.10
2019-03-04T08:48:48.441Z,0.50
2019-03-04T08:51:18.126Z,1.27
2019-03-04T08:53:48.339Z,0.70
2019-03-04T08:56:18.531Z,0.50
2019-03-04T08:58:48.134Z,0.93
2019-03-04T09:01:17.652Z,1.03
2019-03-04T09:03:47.337Z,1.17
2019-03-04T09:06:17.083Z,0.80
2019-03-04T09:08:47.142Z,1.27
2019-03-04T09:11:17.199Z,1.20
2019-03-04T09:13:46.792Z,1.13
2019-03-04T09:16:16.590Z,0.80
2019-03-04T09:18:46.594Z,1.33
2019-03-04T09:21:16.375Z,0.87
2019-03-04T09:23:46.409Z,0.67
2019-03-04T09:26:15.967Z,1.83
2019-03-04T09:28:47.125Z,1.07
2019-03-04T09:31:16.747Z,1.00
2019-03-04T09:33:47.893Z,1.00
2019-03-04T09:36:17.483Z,0.90
2019-03-04T09:38:48.628Z,0.73
2019-03-04T09:41:18.151Z,1.10
2019-03-04T09:43:48.001Z,1.23
2019-03-04T09:46:18.537Z,0.83
2019-03-04T09:48:48.480Z,1.60
2019-03-04T09:51:24.400Z,1.53
2019-03-04T09:53:52.281Z,1.23
2019-03-04T09:56:23.324Z,1.07
2019-03-04T09:58:53.275Z,0.90
2019-03-04T10:01:30.246Z,1.37
2019-03-04T10:04:07.213Z,1.30
2019-03-04T10:07:14.138Z,1.20
2019-03-04T10:10:07.374Z,1.20
2019-03-04T10:12:48.189Z,1.43
2019-03-04T10:15:31.285Z,0.93
2019-03-04T10:18:27.874Z,1.27
2019-03-04T10:21:13.819Z,0.90
2019-03-04T10:24:14.630Z,1.83
2019-03-04T10:27:21.649Z,1.33
2019-03-04T10:30:33.503Z,1.33
2019-03-04T10:33:22.604Z,1.27
2019-03-04T10:36:07.886Z,1.57
2019-03-04T10:39:11.543Z,1.40
2019-03-04T10:41:55.024Z,1.93
2019-03-04T10:44:54.487Z,1.97
2019-03-04T10:47:24.110Z,1.20
2019-03-04T10:49:53.646Z,1.30
2019-03-04T10:52:24.380Z,1.23
2019-03-04T10:54:54.619Z,1.67
2019-03-04T10:57:24.238Z,1.60
2019-03-04T10:59:53.736Z,1.43
2019-03-04T11:05:22.196Z,1.30
2019-03-04T11:07:53.347Z,1.70
2019-03-04T11:10:23.902Z,1.40
2019-03-04T11:12:54.883Z,1.47
2019-03-04T11:15:26.689Z,1.30
2019-03-04T11:18:01.321Z,1.47
2019-03-04T11:20:31.243Z,1.33
2019-03-04T11:23:01.022Z,1.40
2019-03-04T11:25:31.920Z,1.60
2019-03-04T11:28:04.781Z,0.97
2019-03-04T11:30:34.854Z,1.27
2019-03-04T11:33:04.753Z,1.50
2019-03-04T11:35:36.141Z,1.23
2019-03-04T11:38:07.945Z,1.60
2019-03-04T11:40:49.573Z,1.30
2019-03-04T11:43:19.169Z,1.10
2019-03-04T11:45:52.067Z,1.03
2019-03-04T11:48:22.677Z,0.57
2019-03-04T11:50:52.233Z,0.70
2019-03-04T11:53:21.755Z,0.70
2019-03-04T11:55:53.430Z,0.83
2019-03-04T11:58:24.318Z,0.93
2019-03-04T12:01:06.000Z,0.60
2019-03-04T12:03:35.526Z,1.00
2019-03-04T12:06:08.167Z,0.90
2019-03-04T12:08:39.016Z,1.07
2019-03-04T12:11:08.718Z,0.80
2019-03-04T12:13:38.250Z,1.33
2019-03-04T12:16:07.780Z,1.70
2019-03-04T12:18:39.248Z,1.80
2019-03-04T12:21:10.716Z,2.03
2019-03-04T12:23:40.274Z,1.97
2019-03-04T12:26:10.054Z,1.80
2019-03-04T12:28:39.553Z,1.47
2019-03-04T12:31:09.087Z,1.60
2019-03-04T12:33:38.847Z,1.43
2019-03-04T12:36:10.968Z,1.30
2019-03-04T12:38:42.439Z,1.10
2019-03-04T12:41:11.965Z,1.30
2019-03-04T12:43:41.508Z,1.00
2019-03-04T12:46:11.062Z,1.20
2019-03-04T12:48:41.012Z,1.43
2019-03-04T12:51:10.777Z,1.40
2019-03-04T12:53:40.570Z,1.60
2019-03-04T12:56:10.090Z,1.30
2019-03-04T12:58:40.422Z,1.87
2019-03-04T13:01:10.036Z,2.07
2019-03-04T13:03:39.725Z,2.70
2019-03-04T13:06:09.227Z,2.90
2019-03-04T13:08:38.786Z,4.60
2019-03-04T13:11:08.313Z,5.17
2019-03-04T13:13:37.978Z,2.80
2019-03-04T13:16:07.554Z,3.43
2019-03-04T13:18:37.089Z,2.90
2019-03-04T13:21:09.391Z,3.10
2019-03-04T13:23:38.949Z,2.90
2019-03-04T13:26:08.574Z,2.70
2019-03-04T13:28:38.180Z,2.43
2019-03-04T13:31:08.274Z,1.57
2019-03-04T13:33:37.791Z,1.83
2019-03-04T13:36:08.977Z,2.63
2019-03-04T13:38:41.405Z,1.70
2019-03-04T13:41:11.055Z,2.10
2019-03-04T13:43:40.879Z,1.60
2019-03-04T13:46:11.783Z,1.80
2019-03-04T13:48:41.337Z,1.40
2019-03-04T13:51:12.626Z,1.50
2019-03-04T13:53:42.675Z,1.97
2019-03-04T13:56:14.096Z,2.60
2019-03-04T13:58:43.641Z,1.97
2019-03-04T14:01:13.173Z,1.80
2019-03-04T14:03:43.395Z,1.83
2019-03-04T14:06:12.954Z,1.97
2019-03-04T14:08:42.479Z,1.90
2019-03-04T14:11:12.033Z,2.10
2019-03-04T14:13:41.610Z,2.10
2019-03-04T14:16:13.162Z,2.60
2019-03-04T14:18:42.712Z,2.43
2019-03-04T14:21:12.635Z,2.20
2019-03-04T14:23:42.485Z,4.37
2019-03-04T14:26:12.537Z,2.73
2019-03-04T14:28:43.777Z,2.37
2019-03-04T14:31:13.388Z,3.73
2019-03-04T14:33:43.003Z,2.47
2019-03-04T14:36:13.571Z,2.93
2019-03-04T14:38:44.258Z,2.10
2019-03-04T14:41:13.860Z,3.03
2019-03-04T14:43:43.361Z,2.30
2019-03-04T14:46:22.676Z,2.60
2019-03-04T14:48:52.210Z,2.40
2019-03-04T14:51:23.656Z,2.53
2019-03-04T14:53:53.400Z,2.83
2019-03-04T14:56:23.423Z,2.77
2019-03-04T14:59:09.851Z,2.53
2019-03-04T15:01:26.035Z,2.63
2019-03-04T15:03:59.882Z,1.80
2019-03-04T15:06:29.539Z,2.20
2019-03-04T15:08:59.062Z,1.90
2019-03-04T15:11:28.807Z,2.63
2019-03-04T15:13:58.392Z,2.07
2019-03-04T15:16:30.845Z,2.40
2019-03-04T15:19:00.989Z,2.00
2019-03-04T15:21:32.714Z,1.97
2019-03-04T15:24:02.944Z,2.13
2019-03-04T15:26:41.709Z,2.20
2019-03-04T15:29:07.274Z,1.67
2019-03-04T15:31:37.104Z,1.97
2019-03-04T15:34:06.792Z,1.17
2019-03-04T15:36:36.339Z,1.63
2019-03-04T15:39:10.398Z,1.70
2019-03-04T15:41:41.896Z,1.10
2019-03-04T15:44:11.547Z,1.00
2019-03-04T15:46:41.148Z,1.27
2019-03-04T15:49:10.699Z,1.53
2019-03-04T15:51:40.216Z,1.70
2019-03-04T15:54:10.027Z,1.60
2019-03-04T15:56:40.960Z,2.03
2019-03-04T15:59:10.610Z,1.40
2019-03-04T16:01:41.897Z,1.70
2019-03-04T16:04:11.906Z,1.57
2019-03-04T16:06:41.828Z,1.80
2019-03-04T16:09:20.390Z,2.30
2019-03-04T16:11:51.211Z,1.47
2019-03-04T16:14:21.599Z,1.70
2019-03-04T16:16:51.640Z,2.03
2019-03-04T16:19:23.685Z,1.93
2019-03-04T16:21:53.350Z,2.47
2019-03-04T16:24:22.935Z,2.10
2019-03-04T16:26:54.102Z,1.87
2019-03-04T16:29:23.707Z,1.83
2019-03-04T16:31:54.847Z,2.07
2019-03-04T16:34:24.385Z,1.47
2019-03-04T16:36:54.284Z,1.40
2019-03-04T16:39:25.389Z,1.63
2019-03-04T16:41:57.665Z,1.93
2019-03-04T16:44:28.844Z,0.97
2019-03-04T16:46:59.979Z,1.40
2019-03-04T16:49:29.495Z,1.53
2019-03-04T16:51:59.592Z,1.77
2019-03-04T16:54:33.520Z,2.63
2019-03-04T16:57:09.203Z,2.97
2019-03-04T16:59:38.742Z,2.07
2019-03-04T17:02:08.823Z,1.97
2019-03-04T17:04:39.404Z,1.53
2019-03-04T17:07:12.363Z,1.80
2019-03-04T17:09:43.162Z,1.77
2019-03-04T17:12:13.787Z,1.43
2019-03-04T17:14:50.807Z,2.30
2019-03-04T17:17:16.116Z,1.60
2019-03-04T17:19:45.670Z,1.47
2019-03-04T17:22:15.251Z,1.20
2019-03-04T17:24:45.714Z,1.20
2019-03-04T17:27:15.296Z,1.30
2019-03-04T17:29:44.921Z,1.50
2019-03-04T17:32:14.448Z,1.70
2019-03-04T17:34:43.985Z,0.90
2019-03-04T17:37:13.506Z,1.10
2019-03-04T17:39:43.068Z,1.43
2019-03-04T17:42:12.610Z,1.43
2019-03-04T17:44:42.418Z,1.80
2019-03-04T17:47:13.865Z,1.90
2019-03-04T17:49:43.839Z,1.90
2019-03-04T17:52:13.355Z,1.47
2019-03-04T17:54:42.928Z,1.73
2019-03-04T17:57:14.047Z,1.50
2019-03-04T17:59:43.608Z,1.63
2019-03-04T18:02:13.155Z,1.37
2019-03-04T18:04:42.702Z,1.40
2019-03-04T18:07:12.229Z,1.33
2019-03-04T18:09:41.863Z,1.47
2019-03-04T18:12:11.398Z,1.40
2019-03-04T18:14:41.948Z,1.80
2019-03-04T18:17:11.568Z,1.60
2019-03-04T18:19:41.496Z,1.30
2019-03-04T18:22:11.125Z,1.60
2019-03-04T18:24:40.968Z,2.03
2019-03-04T18:27:10.968Z,1.73
2019-03-04T18:29:45.363Z,1.50
2019-03-04T18:32:46.303Z,1.60
2019-03-04T18:35:32.194Z,1.27
2019-03-04T18:38:36.691Z,1.20
2019-03-04T18:41:34.665Z,1.23
2019-03-04T18:44:41.380Z,1.30
2019-03-04T18:47:37.975Z,1.33
2019-03-04T18:50:08.337Z,1.20
2019-03-04T18:52:37.907Z,1.67
2019-03-04T18:55:09.668Z,2.03
2019-03-04T18:57:39.635Z,1.40
2019-03-04T19:00:27.188Z,1.97
2019-03-04T19:02:57.416Z,1.10
2019-03-04T19:05:27.404Z,1.70
2019-03-04T19:07:57.879Z,1.37
2019-03-04T19:10:28.840Z,1.63
2019-03-04T19:12:59.019Z,1.80
2019-03-04T19:15:28.949Z,1.53
2019-03-04T19:17:58.555Z,1.60
2019-03-04T19:20:28.151Z,1.70
2019-03-04T19:33:54.563Z,1.53
2019-03-04T19:36:31.469Z,1.40
2019-03-04T19:39:18.327Z,1.67
2019-03-04T19:41:49.097Z,1.37
2019-03-04T19:44:23.607Z,1.67
2019-03-04T19:46:57.151Z,2.20
2019-03-04T19:49:32.084Z,1.80
2019-03-04T19:52:03.231Z,1.33
2019-03-04T19:55:18.091Z,1.50
2019-03-04T19:57:51.499Z,1.60
2019-03-04T20:00:27.737Z,1.40
2019-03-04T20:02:57.926Z,1.40
2019-03-04T20:05:34.063Z,1.50
2019-03-04T20:08:08.125Z,1.73
2019-03-04T20:10:37.462Z,2.30
2019-03-04T20:13:07.728Z,2.00
2019-03-04T20:15:38.580Z,1.70
2019-03-04T20:18:08.271Z,1.70
2019-03-04T20:20:39.716Z,2.00
2019-03-04T20:23:09.777Z,1.53
2019-03-04T20:25:39.522Z,1.90
2019-03-04T20:28:09.128Z,1.87
2019-03-04T20:30:39.515Z,1.47
2019-03-04T20:33:09.054Z,1.70
2019-03-04T20:35:38.683Z,1.70
2019-03-04T20:38:16.103Z,1.93
2019-03-04T20:40:46.288Z,1.73
2019-03-04T20:43:16.110Z,1.73
2019-03-04T20:45:46.193Z,2.13
2019-03-04T20:48:15.900Z,1.60
2019-03-04T20:50:46.553Z,1.70
2019-03-04T20:53:16.335Z,1.57
2019-03-04T20:55:45.953Z,1.90
2019-03-04T20:58:16.112Z,1.67
2019-03-04T21:00:46.208Z,1.33
2019-03-04T21:03:16.276Z,1.63
2019-03-04T21:05:46.345Z,2.37
2019-03-04T21:08:16.499Z,1.20
2019-03-04T21:10:46.501Z,1.70
2019-03-04T21:13:35.137Z,1.67
2019-03-04T21:15:57.091Z,2.17
2019-03-04T21:18:27.283Z,1.73
2019-03-04T21:20:56.983Z,1.23
2019-03-04T21:23:27.083Z,2.10
2019-03-04T21:26:07.674Z,1.87
2019-03-04T21:29:13.174Z,1.80
2019-03-04T21:32:11.312Z,2.67
2019-03-04T21:34:51.802Z,2.27
2019-03-04T21:37:32.881Z,2.70
2019-03-04T21:40:28.087Z,1.50
2019-03-04T21:43:16.997Z,1.60
2019-03-04T21:46:06.297Z,1.67
2019-03-04T21:48:49.923Z,2.17
2019-03-04T21:51:37.971Z,1.93
2019-03-04T21:54:01.371Z,1.93
2019-03-04T21:56:57.182Z,1.30
2019-03-04T21:59:27.298Z,1.37
2019-03-04T22:02:19.623Z,1.10
2019-03-04T22:04:49.524Z,1.40
2019-03-04T22:07:19.621Z,1.30
2019-03-04T22:09:49.829Z,1.30
2019-03-04T22:12:19.878Z,1.17
2019-03-04T22:14:49.896Z,1.23
2019-03-04T22:17:20.127Z,1.33
2019-03-04T22:19:50.377Z,1.07
2019-03-04T22:22:20.969Z,1.07
2019-03-04T22:24:51.016Z,0.87
2019-03-04T22:27:21.115Z,1.40
2019-03-04T22:29:50.900Z,1.20
2019-03-04T22:32:21.016Z,1.07
2019-03-04T22:34:50.875Z,1.33
2019-03-04T22:37:21.259Z,1.10
2019-03-04T22:39:50.846Z,1.30
2019-03-04T22:42:20.439Z,1.43
2019-03-04T22:44:50.155Z,1.53
2019-03-04T22:47:20.236Z,1.43
2019-03-04T22:49:50.224Z,1.40
2019-03-04T22:52:20.512Z,1.37
2019-03-04T22:54:50.240Z,1.50
2019-03-04T22:57:20.444Z,1.57
2019-03-04T22:59:50.486Z,1.57
2019-03-04T23:02:20.650Z,1.93
2019-03-04T23:04:50.310Z,1.60
2019-03-04T23:07:20.989Z,1.37
2019-03-04T23:09:59.916Z,1.50
2019-03-04T23:12:36.905Z,1.90
2019-03-04T23:15:11.133Z,2.00
2019-03-04T23:17:40.677Z,2.20
2019-03-04T23:20:10.377Z,1.90
2019-03-04T23:22:39.932Z,2.60
2019-03-04T23:25:13.309Z,2.33
2019-03-04T23:27:42.826Z,2.47
2019-03-04T23:30:16.101Z,2.20
2019-03-04T23:32:45.569Z,2.03
2019-03-04T23:35:15.179Z,1.97
2019-03-04T23:37:44.868Z,2.63
2019-03-04T23:40:16.154Z,2.90
2019-03-04T23:42:45.684Z,1.83
2019-03-04T23:45:15.218Z,2.43
2019-03-04T23:47:44.764Z,2.07
2019-03-04T23:50:18.047Z,1.40
2019-03-04T23:52:47.561Z,2.03
2019-03-04T23:55:17.432Z,2.20
2019-03-04T23:57:47.030Z,2.20
